Time;durP1;ratioP1;P1;durP2;ratioP2;P2;SDS_P1;SDS_P2;PMS_P1;PMS_P2;Temp;Humidity;BMP_temperature;BMP_pressure;BME280_temperature;BME280_humidity;BME280_pressure;Samples;Min_cycle;Max_cycle;Signal;HPM_P1;HPM_P2
2021/08/14 00:02:14;;;;;;;21.55;5.72;;;16.80;99.90;;;;;;4992264;28;20497;-76
2021/08/14 00:04:39;;;;;;;22.00;5.97;;;16.80;99.90;;;;;;4991735;28;20501;-77
2021/08/14 00:07:05;;;;;;;13.80;5.18;;;16.80;99.90;;;;;;4991604;28;20041;-76
2021/08/14 00:09:34;;;;;;;23.52;6.15;;;16.90;99.90;;;;;;4992038;28;20022;-75
2021/08/14 00:12:00;;;;;;;21.80;5.43;;;16.80;99.90;;;;;;4993842;28;20030;-75
2021/08/14 00:14:25;;;;;;;26.10;6.63;;;16.80;99.90;;;;;;4995130;28;20019;-77
2021/08/14 00:16:51;;;;;;;20.92;5.70;;;16.80;99.90;;;;;;4995522;28;20040;-75
2021/08/14 00:19:19;;;;;;;18.13;5.78;;;16.90;99.90;;;;;;4995721;28;20109;-76
2021/08/14 00:21:45;;;;;;;18.83;5.38;;;16.80;99.90;;;;;;4995003;28;20028;-75
2021/08/14 00:24:11;;;;;;;18.33;6.53;;;16.90;99.90;;;;;;4995833;28;20014;-75
2021/08/14 00:26:36;;;;;;;17.42;6.13;;;16.90;99.90;;;;;;4995239;28;20045;-76
2021/08/14 00:29:02;;;;;;;20.05;6.32;;;16.80;99.90;;;;;;4994884;28;20026;-75
2021/08/14 00:31:28;;;;;;;18.90;6.55;;;16.80;99.90;;;;;;4995327;28;20031;-76
2021/08/14 00:33:53;;;;;;;16.50;6.03;;;16.80;99.90;;;;;;4995307;28;20034;-76
2021/08/14 00:36:19;;;;;;;20.27;5.55;;;16.80;99.90;;;;;;4994698;28;20026;-76
2021/08/14 00:38:44;;;;;;;19.90;6.28;;;16.70;99.90;;;;;;4995130;28;20026;-76
2021/08/14 00:41:10;;;;;;;31.27;6.50;;;16.70;99.90;;;;;;4995235;28;20029;-76
2021/08/14 00:43:35;;;;;;;18.63;5.38;;;16.70;99.90;;;;;;4994454;28;20031;-77
2021/08/14 00:46:01;;;;;;;21.38;5.63;;;16.70;99.90;;;;;;4995053;28;20030;-76
2021/08/14 00:48:27;;;;;;;19.88;6.22;;;16.70;99.90;;;;;;4994287;28;20066;-76
2021/08/14 00:50:53;;;;;;;26.88;6.97;;;16.70;99.90;;;;;;4995278;28;20041;-76
2021/08/14 00:53:20;;;;;;;15.50;6.03;;;16.70;99.90;;;;;;4995418;28;20023;-76
2021/08/14 00:55:46;;;;;;;21.42;6.28;;;16.70;99.90;;;;;;4994236;28;20038;-76
2021/08/14 00:58:13;;;;;;;19.42;6.05;;;16.70;99.90;;;;;;4994981;28;20058;-76
2021/08/14 01:00:42;;;;;;;27.05;6.75;;;16.70;99.90;;;;;;4994735;28;20061;-76
2021/08/14 01:03:08;;;;;;;16.83;6.03;;;16.70;99.90;;;;;;4994112;28;20026;-76
2021/08/14 01:05:37;;;;;;;20.45;5.78;;;16.70;99.90;;;;;;4994482;28;20018;-76
2021/08/14 01:08:04;;;;;;;19.40;6.05;;;16.70;99.90;;;;;;4995113;28;20026;-76
2021/08/14 01:10:29;;;;;;;13.18;5.78;;;16.70;99.90;;;;;;4993830;28;20026;-77
2021/08/14 01:12:55;;;;;;;18.40;5.95;;;17.40;99.90;;;;;;4980978;28;20085;-76
2021/08/14 01:15:21;;;;;;;24.23;6.05;;;16.70;99.90;;;;;;4986905;28;20026;-77
2021/08/14 01:17:47;;;;;;;19.13;6.07;;;16.70;99.90;;;;;;4993347;28;20035;-76
2021/08/14 01:20:14;;;;;;;19.00;6.22;;;16.80;99.90;;;;;;4995109;28;20089;-76
2021/08/14 01:22:40;;;;;;;23.02;6.05;;;16.70;99.90;;;;;;4994502;28;20045;-76
2021/08/14 01:25:10;;;;;;;21.30;5.55;;;16.80;99.90;;;;;;4993988;28;20030;-76
2021/08/14 01:27:40;;;;;;;21.20;6.38;;;16.70;99.90;;;;;;4994054;28;20029;-75
2021/08/14 01:30:07;;;;;;;17.15;5.55;;;16.80;99.90;;;;;;4994378;28;20493;-77
2021/08/14 01:32:33;;;;;;;22.58;6.63;;;16.70;99.90;;;;;;4993413;28;20026;-76
2021/08/14 01:35:00;;;;;;;24.55;7.15;;;16.80;99.90;;;;;;4994625;28;20022;-75
2021/08/14 01:37:32;;;;;;;20.00;6.22;;;16.70;99.90;;;;;;4994366;28;20573;-75
2021/08/14 01:39:59;;;;;;;14.30;6.35;;;16.70;99.90;;;;;;4994456;28;20030;-75
2021/08/14 01:42:25;;;;;;;15.77;6.45;;;16.70;99.90;;;;;;4994321;28;20040;-75
2021/08/14 01:44:51;;;;;;;26.70;7.25;;;16.70;99.90;;;;;;4993159;28;20141;-75
2021/08/14 01:47:16;;;;;;;19.63;7.18;;;16.60;99.90;;;;;;4994239;28;20479;-75
2021/08/14 01:49:42;;;;;;;21.98;6.82;;;16.60;99.90;;;;;;4993767;28;20023;-75
2021/08/14 01:52:10;;;;;;;15.65;6.30;;;16.60;99.90;;;;;;4993559;28;20022;-76
2021/08/14 01:54:36;;;;;;;17.25;6.60;;;16.60;99.90;;;;;;4996303;28;20026;-76
2021/08/14 01:57:02;;;;;;;17.27;6.97;;;16.60;99.90;;;;;;4996128;28;20035;-75
2021/08/14 01:59:27;;;;;;;13.95;6.50;;;16.50;99.90;;;;;;4966901;28;20411;-77
2021/08/14 02:01:53;;;;;;;18.17;7.03;;;16.50;99.90;;;;;;4992843;28;20089;-78
2021/08/14 02:04:19;;;;;;;23.83;7.60;;;16.50;99.90;;;;;;4993855;28;20054;-77
2021/08/14 02:06:47;;;;;;;19.13;7.00;;;16.40;99.90;;;;;;4992769;28;20030;-77
2021/08/14 02:09:13;;;;;;;26.50;7.05;;;16.40;99.90;;;;;;4993839;28;20085;-77
2021/08/14 02:11:39;;;;;;;16.25;6.45;;;16.40;99.90;;;;;;4993492;28;20026;-75
2021/08/14 02:14:05;;;;;;;19.20;6.82;;;16.30;99.90;;;;;;4993013;28;20037;-78
2021/08/14 02:16:33;;;;;;;21.95;6.63;;;16.30;99.90;;;;;;4993543;28;20433;-77
2021/08/14 02:18:59;;;;;;;26.77;8.82;;;16.30;99.90;;;;;;4993748;28;20441;-76
2021/08/14 02:21:25;;;;;;;21.17;7.15;;;16.30;99.90;;;;;;4992723;28;20037;-77
2021/08/14 02:23:52;;;;;;;22.40;6.93;;;16.30;99.90;;;;;;4993042;28;20018;-78
2021/08/14 02:26:17;;;;;;;20.70;6.88;;;16.30;99.90;;;;;;4993434;28;20026;-76
2021/08/14 02:28:43;;;;;;;23.90;7.05;;;16.30;99.90;;;;;;4992568;28;20030;-76
2021/08/14 02:31:09;;;;;;;24.63;7.07;;;16.30;99.90;;;;;;4993692;28;20436;-77
2021/08/14 02:33:34;;;;;;;17.90;7.90;;;16.30;99.90;;;;;;4992901;28;20437;-76
2021/08/14 02:36:05;;;;;;;16.35;5.95;;;16.30;99.90;;;;;;4992183;28;20034;-76
2021/08/14 02:38:32;;;;;;;19.83;6.65;;;16.20;99.90;;;;;;4993208;28;20037;-77
2021/08/14 02:40:58;;;;;;;24.27;8.57;;;16.20;99.90;;;;;;4992589;28;20023;-76
2021/08/14 02:43:24;;;;;;;19.63;7.68;;;16.20;99.90;;;;;;4993528;28;20026;-77
2021/08/14 02:45:49;;;;;;;22.27;6.70;;;16.10;99.90;;;;;;4992888;28;20134;-75
2021/08/14 02:48:15;;;;;;;23.85;7.45;;;16.10;99.90;;;;;;4992603;28;20500;-77
2021/08/14 02:50:45;;;;;;;16.38;6.45;;;16.20;99.90;;;;;;4992837;28;20052;-77
2021/08/14 02:53:11;;;;;;;22.40;7.70;;;16.10;99.90;;;;;;4992890;28;20486;-77
2021/08/14 02:55:38;;;;;;;18.10;6.65;;;16.10;99.90;;;;;;4991916;28;20041;-76
2021/08/14 02:58:03;;;;;;;13.77;5.70;;;16.10;99.90;;;;;;4992746;28;20022;-76
2021/08/14 03:00:29;;;;;;;15.55;6.18;;;16.10;99.90;;;;;;4993917;28;20045;-76
2021/08/14 03:02:55;;;;;;;16.55;7.00;;;16.10;99.90;;;;;;4992177;28;20085;-77
2021/08/14 03:05:21;;;;;;;19.83;6.90;;;16.10;99.90;;;;;;4993501;28;20101;-77
2021/08/14 03:07:47;;;;;;;12.23;5.97;;;16.00;99.90;;;;;;4991361;28;20479;-77
2021/08/14 03:10:12;;;;;;;17.95;7.63;;;16.10;99.90;;;;;;4992193;28;20074;-77
2021/08/14 03:12:38;;;;;;;12.77;6.47;;;16.00;99.90;;;;;;4992553;28;20378;-77
2021/08/14 03:15:05;;;;;;;18.08;7.43;;;16.00;99.90;;;;;;4992760;28;20030;-77
2021/08/14 03:17:30;;;;;;;19.60;7.20;;;16.00;99.90;;;;;;4991596;28;20036;-77
2021/08/14 03:19:56;;;;;;;19.15;7.00;;;16.00;99.90;;;;;;4992590;28;20470;-78
2021/08/14 03:22:22;;;;;;;22.98;7.97;;;16.00;99.90;;;;;;4993309;28;20129;-77
2021/08/14 03:24:47;;;;;;;26.63;7.50;;;16.00;99.90;;;;;;4991600;28;20126;-75
2021/08/14 03:27:13;;;;;;;14.52;6.32;;;15.90;99.90;;;;;;4992508;28;20042;-75
2021/08/14 03:29:39;;;;;;;17.15;6.43;;;15.90;99.90;;;;;;4991036;28;20077;-75
2021/08/14 03:32:04;;;;;;;16.08;7.20;;;15.90;99.90;;;;;;4991911;28;20034;-75
2021/08/14 03:34:30;;;;;;;18.25;7.78;;;15.80;99.90;;;;;;4992351;28;20113;-77
2021/08/14 03:36:55;;;;;;;21.30;7.75;;;15.80;99.90;;;;;;4992519;28;20053;-76
2021/08/14 03:39:21;;;;;;;23.58;6.88;;;15.80;99.90;;;;;;4991756;28;20028;-77
2021/08/14 03:41:47;;;;;;;24.00;8.25;;;15.80;99.90;;;;;;4992151;28;20542;-76
2021/08/14 03:44:13;;;;;;;23.27;6.75;;;15.70;99.90;;;;;;4991744;28;20077;-76
2021/08/14 03:46:38;;;;;;;15.43;6.63;;;15.90;99.90;;;;;;4993581;28;20023;-77
2021/08/14 03:49:04;;;;;;;13.40;6.40;;;15.70;99.90;;;;;;4996336;28;20172;-77
2021/08/14 03:51:29;;;;;;;20.10;6.43;;;15.70;99.90;;;;;;4995472;28;20349;-76
2021/08/14 03:53:55;;;;;;;12.20;6.25;;;15.70;99.90;;;;;;4996186;28;20023;-77
2021/08/14 03:56:21;;;;;;;24.92;6.97;;;15.60;99.90;;;;;;4996256;28;20034;-76
2021/08/14 03:58:46;;;;;;;20.65;7.03;;;15.60;99.90;;;;;;4995228;28;20185;-77
2021/08/14 04:01:12;;;;;;;15.50;6.22;;;15.60;99.90;;;;;;4996206;28;20034;-77
2021/08/14 04:03:38;;;;;;;13.90;6.53;;;15.60;99.90;;;;;;4995979;28;20040;-76
2021/08/14 04:06:03;;;;;;;17.30;5.97;;;15.60;99.90;;;;;;4995339;28;20038;-76
2021/08/14 04:08:29;;;;;;;22.15;7.20;;;15.60;99.90;;;;;;4995740;28;20451;-76
2021/08/14 04:10:55;;;;;;;15.70;6.47;;;15.60;99.90;;;;;;4996352;28;20042;-76
2021/08/14 04:13:21;;;;;;;19.27;6.57;;;15.50;99.90;;;;;;4995079;28;20037;-76
2021/08/14 04:15:47;;;;;;;20.50;6.88;;;15.50;99.90;;;;;;4995596;28;20026;-76
2021/08/14 04:18:12;;;;;;;12.00;5.95;;;15.50;99.90;;;;;;4995936;28;20096;-76
2021/08/14 04:20:38;;;;;;;18.25;6.13;;;15.50;99.90;;;;;;4996556;28;20036;-75
2021/08/14 04:23:03;;;;;;;21.10;6.07;;;15.40;99.90;;;;;;4996825;28;20057;-76
2021/08/14 04:25:29;;;;;;;11.93;6.15;;;15.40;99.90;;;;;;4995118;28;20014;-76
2021/08/14 04:27:55;;;;;;;13.45;5.95;;;15.30;99.90;;;;;;4995053;28;20205;-76
2021/08/14 04:30:21;;;;;;;19.83;6.60;;;15.30;99.90;;;;;;4995630;28;20378;-77
2021/08/14 04:32:47;;;;;;;16.38;6.40;;;15.20;99.90;;;;;;4995447;28;20076;-77
2021/08/14 04:35:14;;;;;;;15.98;5.82;;;15.20;99.90;;;;;;4994904;28;20043;-76
2021/08/14 04:37:40;;;;;;;14.25;6.32;;;15.20;99.90;;;;;;4994881;28;20030;-75
2021/08/14 04:40:10;;;;;;;14.68;6.15;;;15.10;99.90;;;;;;4995690;28;20084;-76
2021/08/14 04:42:36;;;;;;;13.15;6.53;;;15.10;99.90;;;;;;4994728;28;20085;-77
2021/08/14 04:45:04;;;;;;;16.10;6.65;;;15.10;99.90;;;;;;4995570;28;20037;-75
2021/08/14 04:47:29;;;;;;;25.35;7.60;;;15.10;99.90;;;;;;4994114;28;20027;-75
2021/08/14 04:49:55;;;;;;;20.70;6.78;;;15.10;99.90;;;;;;4995151;28;20010;-76
2021/08/14 04:52:20;;;;;;;23.33;7.47;;;15.00;99.90;;;;;;4981673;28;20023;-76
2021/08/14 04:54:46;;;;;;;18.83;7.13;;;15.00;99.90;;;;;;4993991;28;20456;-76
2021/08/14 04:57:11;;;;;;;17.63;7.47;;;15.00;99.90;;;;;;4994843;28;20035;-74
2021/08/14 04:59:37;;;;;;;17.73;7.40;;;15.00;99.90;;;;;;4994314;28;20046;-77
2021/08/14 05:02:03;;;;;;;21.15;8.35;;;15.00;99.90;;;;;;4994400;28;20045;-75
2021/08/14 05:04:29;;;;;;;17.23;7.22;;;15.00;99.90;;;;;;4994473;28;20026;-77
2021/08/14 05:06:55;;;;;;;20.30;8.00;;;15.10;99.90;;;;;;4994882;28;20033;-76
2021/08/14 05:09:20;;;;;;;21.10;7.35;;;15.10;99.90;;;;;;4994281;28;20026;-74
2021/08/14 05:11:46;;;;;;;22.08;7.68;;;15.10;99.90;;;;;;4994698;28;20032;-77
2021/08/14 05:14:11;;;;;;;18.77;6.97;;;15.10;99.90;;;;;;4994988;28;20122;-77
2021/08/14 05:16:37;;;;;;;19.70;8.27;;;15.20;99.90;;;;;;4993729;28;20134;-76
2021/08/14 05:19:04;;;;;;;15.00;7.50;;;15.20;99.90;;;;;;4994904;28;20022;-78
2021/08/14 05:21:29;;;;;;;23.60;8.40;;;15.20;99.90;;;;;;4994398;28;20038;-76
2021/08/14 05:23:55;;;;;;;19.80;7.65;;;15.20;99.90;;;;;;4995803;28;20024;-75
2021/08/14 05:26:21;;;;;;;23.55;7.85;;;15.20;99.90;;;;;;4996320;28;20057;-76
2021/08/14 05:28:47;;;;;;;29.13;8.15;;;15.30;99.90;;;;;;4996366;28;20029;-77
2021/08/14 05:31:13;;;;;;;23.90;8.15;;;15.30;99.90;;;;;;4994350;28;20026;-76
2021/08/14 05:33:38;;;;;;;16.10;6.82;;;15.40;99.90;;;;;;4994360;28;20430;-77
2021/08/14 05:36:04;;;;;;;27.05;9.00;;;15.40;99.90;;;;;;4994135;28;20061;-77
2021/08/14 05:38:30;;;;;;;18.02;8.15;;;15.40;99.90;;;;;;4993664;28;20100;-77
2021/08/14 05:40:56;;;;;;;26.95;9.80;;;15.60;99.90;;;;;;4994428;28;20581;-76
2021/08/14 05:43:21;;;;;;;25.52;9.63;;;15.60;99.90;;;;;;4994468;28;20045;-77
2021/08/14 05:45:47;;;;;;;19.77;8.75;;;15.80;99.90;;;;;;4993239;28;20034;-77
2021/08/14 05:48:12;;;;;;;26.85;9.05;;;15.90;99.90;;;;;;4994217;28;20042;-76
2021/08/14 05:50:38;;;;;;;29.98;9.88;;;16.00;99.90;;;;;;4993743;28;20026;-76
2021/08/14 05:53:03;;;;;;;31.63;10.27;;;16.10;99.90;;;;;;4993617;28;20378;-77
2021/08/14 05:55:29;;;;;;;19.70;9.18;;;16.20;99.90;;;;;;4993935;28;20111;-76
2021/08/14 05:57:56;;;;;;;30.13;10.23;;;17.00;99.90;;;;;;4979700;28;20429;-76
2021/08/14 06:00:22;;;;;;;19.05;8.35;;;16.40;99.90;;;;;;4993902;28;20050;-77
2021/08/14 06:02:48;;;;;;;39.28;11.10;;;16.40;99.90;;;;;;4993533;28;20305;-76
2021/08/14 06:05:14;;;;;;;43.15;11.88;;;16.50;99.90;;;;;;4993168;28;20096;-76
2021/08/14 06:07:42;;;;;;;36.03;11.50;;;16.60;99.90;;;;;;4993813;28;20467;-76
2021/08/14 06:10:09;;;;;;;36.83;11.68;;;16.60;99.90;;;;;;4966474;28;20196;-76
2021/08/14 06:12:34;;;;;;;51.95;15.23;;;16.70;99.90;;;;;;4992922;28;20110;-76
2021/08/14 06:15:00;;;;;;;59.28;15.50;;;16.70;99.90;;;;;;4993802;28;20097;-78
2021/08/14 06:17:26;;;;;;;60.75;17.55;;;16.70;99.90;;;;;;4993600;28;20030;-75
2021/08/14 06:19:52;;;;;;;66.63;18.05;;;16.70;99.90;;;;;;4992853;28;20026;-76
2021/08/14 06:22:17;;;;;;;72.10;19.02;;;16.80;99.90;;;;;;4993770;28;20034;-75
2021/08/14 06:24:43;;;;;;;80.25;19.85;;;16.80;99.90;;;;;;4993516;28;20034;-76
2021/08/14 06:27:08;;;;;;;79.50;20.17;;;16.80;99.90;;;;;;4992953;28;20113;-76
2021/08/14 06:29:34;;;;;;;71.93;19.75;;;16.80;99.90;;;;;;4993221;28;20466;-75
2021/08/14 06:32:00;;;;;;;61.78;19.23;;;16.90;99.90;;;;;;4993345;28;20022;-76
2021/08/14 06:34:25;;;;;;;60.30;18.98;;;16.90;99.90;;;;;;4993021;28;20478;-74
2021/08/14 06:36:51;;;;;;;76.85;21.17;;;16.90;99.90;;;;;;4993250;28;20034;-75
2021/08/14 06:39:17;;;;;;;62.45;19.92;;;17.00;99.90;;;;;;4996228;28;20029;-76
2021/08/14 06:41:42;;;;;;;69.85;20.10;;;17.00;99.90;;;;;;4992499;28;20037;-77
2021/08/14 06:44:08;;;;;;;62.42;18.65;;;17.10;99.90;;;;;;4993789;28;20030;-77
2021/08/14 06:46:34;;;;;;;66.00;21.08;;;17.20;99.90;;;;;;4994987;28;20026;-77
2021/08/14 06:49:02;;;;;;;74.97;21.23;;;17.20;99.90;;;;;;4995110;28;20114;-76
2021/08/14 06:51:28;;;;;;;72.97;21.20;;;17.20;99.90;;;;;;4993526;28;20034;-76
2021/08/14 06:53:53;;;;;;;64.68;20.58;;;17.20;99.90;;;;;;4993561;28;20034;-76
2021/08/14 06:56:19;;;;;;;62.30;20.73;;;17.30;99.90;;;;;;4995179;28;20081;-77
2021/08/14 06:58:44;;;;;;;67.07;18.98;;;17.30;99.90;;;;;;4992774;28;20089;-76
2021/08/14 07:01:10;;;;;;;67.25;19.73;;;17.40;99.90;;;;;;4992370;28;20030;-77
2021/08/14 07:03:38;;;;;;;67.22;19.08;;;17.40;99.90;;;;;;4992788;28;20034;-77
2021/08/14 07:06:04;;;;;;;54.60;18.77;;;17.50;99.90;;;;;;4992844;28;20030;-77
2021/08/14 07:08:29;;;;;;;51.30;18.20;;;17.60;99.90;;;;;;4992198;28;20038;-77
2021/08/14 07:10:55;;;;;;;48.70;20.23;;;17.70;99.90;;;;;;4993092;28;20034;-76
2021/08/14 07:13:20;;;;;;;61.17;18.38;;;17.80;99.90;;;;;;4993155;28;20390;-76
2021/08/14 07:15:46;;;;;;;45.72;18.50;;;17.90;99.90;;;;;;4992341;28;20096;-78
2021/08/14 07:18:12;;;;;;;57.65;20.13;;;18.00;99.90;;;;;;4993707;28;20035;-76
2021/08/14 07:20:37;;;;;;;53.08;17.98;;;18.00;99.90;;;;;;4992789;28;20533;-76
2021/08/14 07:23:03;;;;;;;56.97;20.02;;;18.10;99.90;;;;;;4992807;28;20222;-76
2021/08/14 07:25:29;;;;;;;49.15;16.83;;;18.20;99.90;;;;;;4992557;28;20037;-77
2021/08/14 07:27:55;;;;;;;60.38;19.08;;;18.20;99.90;;;;;;4993462;28;20382;-77
2021/08/14 07:30:20;;;;;;;56.50;19.67;;;18.40;99.90;;;;;;4992372;28;20038;-76
2021/08/14 07:32:46;;;;;;;52.63;18.17;;;18.40;99.90;;;;;;4992835;28;20455;-77
2021/08/14 07:35:12;;;;;;;62.80;18.77;;;18.50;99.90;;;;;;4993184;28;20104;-76
2021/08/14 07:37:48;;;;;;;54.60;18.75;;;18.50;99.90;;;;;;4992138;28;20058;-77
2021/08/14 07:40:23;;;;;;;53.47;17.58;;;18.50;99.90;;;;;;4992927;28;20039;-76
2021/08/14 07:42:49;;;;;;;48.72;17.63;;;18.50;99.90;;;;;;4979143;28;20022;-77
2021/08/14 07:45:18;;;;;;;58.40;17.65;;;18.50;99.90;;;;;;4992216;28;20022;-77
2021/08/14 07:47:47;;;;;;;59.80;18.00;;;18.50;99.90;;;;;;4993639;28;20121;-77
2021/08/14 07:50:16;;;;;;;42.58;19.17;;;18.50;99.90;;;;;;4992906;28;20427;-77
2021/08/14 07:52:41;;;;;;;47.92;18.25;;;18.40;99.90;;;;;;4991982;28;20483;-77
2021/08/14 07:55:07;;;;;;;49.88;16.92;;;18.20;99.90;;;;;;4993307;28;20050;-76
2021/08/14 07:57:37;;;;;;;53.08;16.92;;;18.40;99.90;;;;;;4991909;28;20073;-76
2021/08/14 08:00:03;;;;;;;46.60;18.52;;;18.50;99.90;;;;;;4992859;28;20054;-77
2021/08/14 08:02:29;;;;;;;44.20;15.60;;;18.50;99.90;;;;;;4992330;28;20034;-77
2021/08/14 08:04:54;;;;;;;49.20;18.98;;;18.60;99.90;;;;;;4992208;28;20081;-76
2021/08/14 08:07:20;;;;;;;46.30;17.15;;;18.60;99.90;;;;;;4993114;28;20035;-78
2021/08/14 08:09:45;;;;;;;51.80;16.50;;;18.70;99.90;;;;;;4992271;28;20522;-77
2021/08/14 08:12:11;;;;;;;42.53;16.13;;;18.80;99.90;;;;;;4992170;28;20022;-77
2021/08/14 08:14:36;;;;;;;39.33;16.10;;;18.80;99.90;;;;;;4993274;28;20450;-78
2021/08/14 08:17:02;;;;;;;38.30;16.15;;;18.80;99.90;;;;;;4992678;28;20027;-77
2021/08/14 08:19:27;;;;;;;31.17;14.00;;;18.90;99.90;;;;;;4991926;28;20026;-78
2021/08/14 08:21:53;;;;;;;37.15;14.77;;;18.90;99.90;;;;;;4992491;28;20394;-79
2021/08/14 08:24:19;;;;;;;36.38;15.85;;;19.00;99.90;;;;;;4992897;28;20072;-77
2021/08/14 08:26:44;;;;;;;41.47;15.63;;;19.10;99.90;;;;;;4991723;28;20064;-77
2021/08/14 08:29:12;;;;;;;35.90;14.48;;;19.30;99.90;;;;;;4992688;28;20069;-76
2021/08/14 08:31:38;;;;;;;42.90;16.23;;;19.30;99.90;;;;;;4992509;28;20050;-77
2021/08/14 08:34:03;;;;;;;38.90;15.68;;;19.40;99.90;;;;;;4995150;28;20474;-77
2021/08/14 08:36:29;;;;;;;42.63;15.63;;;20.30;99.90;;;;;;4996024;28;20546;-76
2021/08/14 08:38:54;;;;;;;35.03;13.85;;;19.30;99.90;;;;;;4996098;28;20046;-77
2021/08/14 08:41:20;;;;;;;33.63;14.70;;;19.40;99.90;;;;;;4995543;28;20434;-77
2021/08/14 08:43:46;;;;;;;37.92;14.77;;;19.60;99.90;;;;;;4982457;28;20471;-77
2021/08/14 08:46:12;;;;;;;32.03;14.60;;;19.70;99.90;;;;;;4994901;28;20019;-77
2021/08/14 08:48:42;;;;;;;30.52;14.20;;;19.80;99.90;;;;;;4994864;28;20585;-77
2021/08/14 08:51:09;;;;;;;38.65;14.73;;;20.10;99.90;;;;;;4995826;28;20023;-78
2021/08/14 08:53:35;;;;;;;36.65;13.48;;;20.90;99.90;;;;;;4995106;28;20081;-77
2021/08/14 08:56:00;;;;;;;38.45;13.80;;;20.30;99.90;;;;;;4994962;28;20052;-77
2021/08/14 08:58:26;;;;;;;40.97;13.55;;;20.40;99.90;;;;;;4995661;28;20037;-77
2021/08/14 09:00:52;;;;;;;40.30;14.15;;;20.50;99.90;;;;;;4994490;28;20046;-77
2021/08/14 09:03:17;;;;;;;31.48;13.30;;;20.60;99.90;;;;;;4995464;28;20061;-77
2021/08/14 09:05:47;;;;;;;36.75;15.68;;;20.70;99.90;;;;;;4995287;28;20022;-76
2021/08/14 09:08:13;;;;;;;46.63;17.35;;;20.80;99.90;;;;;;4994645;28;20026;-78
2021/08/14 09:10:38;;;;;;;36.75;15.88;;;20.80;99.90;;;;;;4995064;28;20463;-78
2021/08/14 09:13:18;;;;;;;27.58;13.13;;;20.80;99.90;;;;;;4998483;28;20031;-77
2021/08/14 09:15:45;;;;;;;42.72;18.13;;;20.80;99.90;;;;;;4996468;28;20042;-77
2021/08/14 09:18:15;;;;;;;37.08;14.73;;;21.00;99.90;;;;;;4995506;28;20046;-77
2021/08/14 09:20:53;;;;;;;45.55;16.90;;;21.10;99.90;;;;;;4994879;28;20161;-78
2021/08/14 09:23:20;;;;;;;47.28;15.88;;;21.20;99.90;;;;;;4994953;28;20037;-78
2021/08/14 09:25:46;;;;;;;37.22;15.48;;;21.20;99.90;;;;;;4994976;28;20022;-77
2021/08/14 09:28:14;;;;;;;39.58;15.00;;;21.30;99.90;;;;;;4995223;28;20025;-76
2021/08/14 09:30:49;;;;;;;36.60;15.10;;;21.50;99.90;;;;;;4993907;28;20026;-78
2021/08/14 09:33:21;;;;;;;43.08;15.50;;;21.60;99.90;;;;;;4995042;28;20456;-78
2021/08/14 09:35:57;;;;;;;36.40;13.88;;;21.60;99.90;;;;;;4994458;28;20509;-77
2021/08/14 09:38:23;;;;;;;39.97;14.13;;;21.70;99.90;;;;;;4995296;28;20042;-77
2021/08/14 09:40:49;;;;;;;29.42;13.77;;;21.90;99.90;;;;;;4994868;28;20027;-77
2021/08/14 09:43:32;;;;;;;35.45;12.40;;;21.90;99.90;;;;;;4993799;28;20500;-78
2021/08/14 09:45:57;;;;;;;33.25;12.13;;;21.90;99.90;;;;;;4994250;28;20085;-77
2021/08/14 09:48:25;;;;;;;30.17;12.75;;;21.80;99.90;;;;;;4994854;28;20081;-77
2021/08/14 09:50:51;;;;;;;37.22;13.90;;;21.80;99.90;;;;;;4993705;28;20379;-77
2021/08/14 09:53:22;;;;;;;30.55;13.77;;;21.70;99.90;;;;;;4995014;28;20028;-77
2021/08/14 09:55:52;;;;;;;37.08;14.75;;;21.70;99.90;;;;;;4994490;28;20085;-77
2021/08/14 09:58:24;;;;;;;32.47;13.63;;;21.70;99.90;;;;;;4993915;28;20474;-77
2021/08/14 10:00:52;;;;;;;44.35;16.25;;;21.60;99.90;;;;;;4994123;28;20043;-77
2021/08/14 10:03:18;;;;;;;34.45;14.90;;;21.60;99.90;;;;;;4994159;28;20054;-77
2021/08/14 10:05:45;;;;;;;37.80;15.77;;;21.80;99.90;;;;;;4993552;28;20065;-78
2021/08/14 10:08:11;;;;;;;31.58;13.73;;;21.90;99.90;;;;;;4994511;28;20049;-77
2021/08/14 10:10:37;;;;;;;34.08;14.30;;;22.00;99.90;;;;;;4993950;28;20026;-76
2021/08/14 10:13:03;;;;;;;41.13;15.10;;;22.20;99.90;;;;;;4993208;28;20033;-77
2021/08/14 10:15:29;;;;;;;36.92;14.77;;;22.30;99.90;;;;;;4982723;28;20038;-77
2021/08/14 10:17:55;;;;;;;30.83;13.85;;;22.30;99.90;;;;;;4994346;28;20077;-77
2021/08/14 10:20:22;;;;;;;38.78;15.07;;;22.30;99.90;;;;;;4993771;28;20023;-77
2021/08/14 10:22:58;;;;;;;33.75;14.55;;;22.40;99.90;;;;;;4994620;28;20030;-78
2021/08/14 10:25:24;;;;;;;36.22;12.95;;;22.50;99.90;;;;;;4993065;28;20513;-77
2021/08/14 10:27:55;;;;;;;40.08;14.95;;;22.60;99.90;;;;;;4986209;28;20050;-77
2021/08/14 10:30:48;;;;;;;28.42;12.68;;;22.80;99.90;;;;;;4990661;28;20074;-77
2021/08/14 10:33:28;;;;;;;31.52;12.93;;;23.00;99.90;;;;;;4993419;28;20113;-78
2021/08/14 10:35:55;;;;;;;37.67;13.45;;;23.30;99.90;;;;;;4993931;28;20027;-78
2021/08/14 10:38:42;;;;;;;35.25;12.02;;;23.30;99.90;;;;;;4993940;28;20487;-78
2021/08/14 10:41:08;;;;;;;30.48;12.65;;;23.20;99.90;;;;;;4992933;28;20064;-78
2021/08/14 10:43:52;;;;;;;31.08;10.73;;;23.10;99.90;;;;;;4993420;28;20052;-79
2021/08/14 10:46:44;;;;;;;25.60;10.50;;;23.00;99.90;;;;;;4992963;28;20029;-78
2021/08/14 10:49:32;;;;;;;29.33;11.30;;;23.00;99.90;;;;;;4994024;28;20034;-77
2021/08/14 10:52:00;;;;;;;24.02;10.35;;;23.00;99.90;;;;;;4993614;28;20105;-78
2021/08/14 10:54:55;;;;;;;25.50;10.00;;;22.90;99.90;;;;;;4992798;28;20022;-77
2021/08/14 10:57:42;;;;;;;29.85;11.57;;;22.80;99.90;;;;;;4992993;28;20504;-76
2021/08/14 11:00:14;;;;;;;23.02;9.18;;;22.50;99.90;;;;;;4993878;28;20039;-76
2021/08/14 11:02:59;;;;;;;28.10;9.93;;;22.30;99.90;;;;;;4993459;28;20033;-76
2021/08/14 11:05:25;;;;;;;32.15;11.57;;;22.20;99.90;;;;;;4993406;28;20066;-77
2021/08/14 11:07:51;;;;;;;26.85;9.38;;;22.20;99.90;;;;;;4992100;28;20364;-76
2021/08/14 11:10:31;;;;;;;29.92;9.77;;;22.30;99.90;;;;;;4993443;28;20030;-77
2021/08/14 11:12:57;;;;;;;29.58;9.93;;;22.30;99.90;;;;;;4993509;28;20022;-78
2021/08/14 11:15:38;;;;;;;26.27;9.73;;;22.20;99.90;;;;;;4992565;28;20049;-77
2021/08/14 11:18:04;;;;;;;31.27;10.00;;;22.20;99.90;;;;;;4993355;28;20499;-77
2021/08/14 11:20:38;;;;;;;25.77;10.02;;;22.00;99.90;;;;;;4992646;28;20044;-78
2021/08/14 11:23:22;;;;;;;23.08;8.38;;;21.90;99.90;;;;;;4992492;28;20030;-78
2021/08/14 11:25:48;;;;;;;18.00;5.88;;;22.00;99.90;;;;;;4992660;28;20018;-78
2021/08/14 11:28:20;;;;;;;19.00;5.88;;;21.90;99.90;;;;;;4993300;28;20043;-76
2021/08/14 11:31:01;;;;;;;19.52;6.07;;;21.90;99.90;;;;;;4992927;28;20096;-77
2021/08/14 11:33:27;;;;;;;11.85;5.10;;;21.90;99.90;;;;;;4992903;28;20033;-77
2021/08/14 11:36:02;;;;;;;21.50;6.75;;;21.90;99.90;;;;;;4992665;28;20030;-77
2021/08/14 11:38:36;;;;;;;14.80;5.78;;;21.90;99.90;;;;;;4993784;28;20030;-77
2021/08/14 11:41:13;;;;;;;15.70;5.53;;;21.90;99.90;;;;;;4994196;28;20149;-78
2021/08/14 11:43:40;;;;;;;14.20;5.03;;;22.10;99.90;;;;;;4992140;28;20038;-79
2021/08/14 11:46:07;;;;;;;15.75;5.25;;;22.40;99.90;;;;;;4993032;28;20018;-76
2021/08/14 11:48:40;;;;;;;16.05;4.90;;;22.50;99.90;;;;;;4992842;28;20027;-78
2021/08/14 11:51:16;;;;;;;11.15;3.85;;;22.60;99.90;;;;;;4992357;28;20015;-78
2021/08/14 11:53:41;;;;;;;19.27;5.03;;;22.70;99.90;;;;;;4992887;28;20118;-77
2021/08/14 11:56:08;;;;;;;10.80;5.07;;;22.70;99.90;;;;;;4992766;28;20050;-77
2021/08/14 11:58:34;;;;;;;11.82;4.50;;;22.70;99.90;;;;;;4992473;28;20046;-78
2021/08/14 12:01:01;;;;;;;13.15;5.22;;;22.80;99.90;;;;;;4992645;28;20042;-77
2021/08/14 12:03:27;;;;;;;17.90;5.70;;;22.80;99.90;;;;;;4992341;28;20069;-76
2021/08/14 12:05:52;;;;;;;18.85;5.22;;;22.70;99.90;;;;;;4992192;28;20029;-77
2021/08/14 12:08:30;;;;;;;14.77;4.72;;;22.70;99.90;;;;;;4995044;28;20034;-77
2021/08/14 12:11:07;;;;;;;14.30;4.65;;;22.70;99.90;;;;;;4995947;28;20030;-77
2021/08/14 12:13:34;;;;;;;9.57;4.18;;;22.60;99.90;;;;;;4996458;28;20022;-79
2021/08/14 12:16:17;;;;;;;14.80;4.68;;;22.50;99.90;;;;;;4996624;28;20030;-77
2021/08/14 12:18:48;;;;;;;9.38;3.60;;;22.60;99.90;;;;;;4995542;28;20498;-77
2021/08/14 12:21:18;;;;;;;13.52;4.45;;;22.80;99.90;;;;;;4996628;28;20061;-77
2021/08/14 12:23:46;;;;;;;11.60;4.30;;;22.90;99.90;;;;;;4996257;28;20457;-77
2021/08/14 12:26:26;;;;;;;9.15;4.45;;;22.90;99.90;;;;;;4995669;28;20474;-78
2021/08/14 12:28:58;;;;;;;15.45;4.65;;;23.10;99.90;;;;;;4996185;28;20478;-78
2021/08/14 12:31:23;;;;;;;9.05;3.85;;;23.20;99.90;;;;;;4996311;28;20039;-79
2021/08/14 12:33:55;;;;;;;11.70;4.45;;;23.20;99.90;;;;;;4995344;28;20030;-79
2021/08/14 12:36:35;;;;;;;19.13;5.13;;;23.30;99.90;;;;;;4996037;28;20034;-78